sensor_id;sensor_type;location;lat;lon;timestamp;pressure;altitude;pressure_sealevel;temperature;humidity
12666;BME280;58531;59.050;17.416;2023-06-22T00:00:51;100564.28;;;16.79;100.00
12666;BME280;58531;59.050;17.416;2023-06-22T00:03:19;100559.13;;;16.81;100.00
12666;BME280;58531;59.050;17.416;2023-06-22T00:05:47;100557.94;;;16.82;100.00
12666;BME280;58531;59.050;17.416;2023-06-22T00:08:15;100562.56;;;16.81;100.00
12666;BME280;58531;59.050;17.416;2023-06-22T00:10:43;100552.47;;;16.76;100.00
12666;BME280;58531;59.050;17.416;2023-06-22T00:13:10;100550.19;;;16.69;100.00
12666;BME280;58531;59.050;17.416;2023-06-22T00:15:38;100550.16;;;16.64;100.00
12666;BME280;58531;59.050;17.416;2023-06-22T00:18:06;100553.06;;;16.60;100.00
12666;BME280;58531;59.050;17.416;2023-06-22T00:20:33;100553.06;;;16.60;100.00
12666;BME280;58531;59.050;17.416;2023-06-22T00:23:02;100551.09;;;16.61;100.00
12666;BME280;58531;59.050;17.416;2023-06-22T00:25:35;100549.66;;;16.65;100.00
12666;BME280;58531;59.050;17.416;2023-06-22T00:28:02;100558.81;;;16.73;100.00
12666;BME280;58531;59.050;17.416;2023-06-22T00:30:30;100557.59;;;16.74;100.00
12666;BME280;58531;59.050;17.416;2023-06-22T00:32:57;100547.75;;;16.71;100.00
12666;BME280;58531;59.050;17.416;2023-06-22T00:35:24;100553.00;;;16.80;100.00
12666;BME280;58531;59.050;17.416;2023-06-22T00:37:54;100556.22;;;16.84;100.00
12666;BME280;58531;59.050;17.416;2023-06-22T00:40:26;100562.81;;;16.83;100.00
12666;BME280;58531;59.050;17.416;2023-06-22T00:42:55;100565.28;;;16.87;100.00
12666;BME280;58531;59.050;17.416;2023-06-22T00:45:24;100555.78;;;16.91;100.00
12666;BME280;58531;59.050;17.416;2023-06-22T00:47:51;100554.81;;;16.94;100.00
12666;BME280;58531;59.050;17.416;2023-06-22T00:50:20;100555.09;;;16.96;100.00
12666;BME280;58531;59.050;17.416;2023-06-22T00:52:52;100556.06;;;16.99;100.00
12666;BME280;58531;59.050;17.416;2023-06-22T00:55:20;100549.19;;;16.98;100.00
12666;BME280;58531;59.050;17.416;2023-06-22T00:57:48;100549.91;;;16.93;100.00
12666;BME280;58531;59.050;17.416;2023-06-22T01:00:16;100551.34;;;16.88;100.00
12666;BME280;58531;59.050;17.416;2023-06-22T01:02:45;100554.72;;;16.83;100.00
12666;BME280;58531;59.050;17.416;2023-06-22T01:05:17;100559.59;;;16.79;100.00
12666;BME280;58531;59.050;17.416;2023-06-22T01:07:54;100555.16;;;16.76;100.00
12666;BME280;58531;59.050;17.416;2023-06-22T01:10:28;100560.97;;;16.69;100.00
12666;BME280;58531;59.050;17.416;2023-06-22T01:13:01;100561.41;;;16.62;100.00
12666;BME280;58531;59.050;17.416;2023-06-22T01:15:33;100567.28;;;16.61;100.00
12666;BME280;58531;59.050;17.416;2023-06-22T01:18:04;100561.38;;;16.57;100.00
12666;BME280;58531;59.050;17.416;2023-06-22T01:20:32;100556.47;;;16.56;100.00
12666;BME280;58531;59.050;17.416;2023-06-22T01:23:09;100557.16;;;16.51;100.00
12666;BME280;58531;59.050;17.416;2023-06-22T01:25:46;100564.72;;;16.47;100.00
12666;BME280;58531;59.050;17.416;2023-06-22T01:28:24;100560.25;;;16.44;100.00
12666;BME280;58531;59.050;17.416;2023-06-22T01:30:53;100556.53;;;16.41;100.00
12666;BME280;58531;59.050;17.416;2023-06-22T01:33:29;100558.78;;;16.43;100.00
12666;BME280;58531;59.050;17.416;2023-06-22T01:35:58;100554.34;;;16.40;100.00
12666;BME280;58531;59.050;17.416;2023-06-22T01:38:27;100554.34;;;16.40;100.00
12666;BME280;58531;59.050;17.416;2023-06-22T01:40:55;100572.94;;;16.38;100.00
12666;BME280;58531;59.050;17.416;2023-06-22T01:43:24;100561.41;;;16.37;100.00
12666;BME280;58531;59.050;17.416;2023-06-22T01:45:51;100561.22;;;16.41;100.00
12666;BME280;58531;59.050;17.416;2023-06-22T01:48:21;100560.53;;;16.46;100.00
12666;BME280;58531;59.050;17.416;2023-06-22T01:50:49;100561.53;;;16.48;100.00
12666;BME280;58531;59.050;17.416;2023-06-22T01:53:16;100554.19;;;16.49;100.00
12666;BME280;58531;59.050;17.416;2023-06-22T01:55:42;100565.00;;;16.54;100.00
12666;BME280;58531;59.050;17.416;2023-06-22T01:58:09;100555.47;;;16.58;100.00
12666;BME280;58531;59.050;17.416;2023-06-22T02:00:37;100562.88;;;16.63;100.00
12666;BME280;58531;59.050;17.416;2023-06-22T02:03:09;100566.38;;;16.69;100.00
12666;BME280;58531;59.050;17.416;2023-06-22T02:05:43;100562.03;;;16.77;100.00
12666;BME280;58531;59.050;17.416;2023-06-22T02:08:15;100573.63;;;16.83;100.00
12666;BME280;58531;59.050;17.416;2023-06-22T02:10:45;100574.41;;;16.89;100.00
12666;BME280;58531;59.050;17.416;2023-06-22T02:13:13;100576.41;;;16.94;100.00
12666;BME280;58531;59.050;17.416;2023-06-22T02:15:40;100570.06;;;16.97;100.00
12666;BME280;58531;59.050;17.416;2023-06-22T02:18:08;100573.53;;;17.03;100.00
12666;BME280;58531;59.050;17.416;2023-06-22T02:20:36;100567.41;;;17.03;100.00
12666;BME280;58531;59.050;17.416;2023-06-22T02:23:05;100576.19;;;16.98;100.00
12666;BME280;58531;59.050;17.416;2023-06-22T02:25:32;100569.78;;;16.95;100.00
12666;BME280;58531;59.050;17.416;2023-06-22T02:27:59;100571.97;;;16.91;100.00
12666;BME280;58531;59.050;17.416;2023-06-22T02:30:26;100577.38;;;16.91;100.00
12666;BME280;58531;59.050;17.416;2023-06-22T02:32:52;100574.94;;;16.93;100.00
12666;BME280;58531;59.050;17.416;2023-06-22T02:35:24;100576.94;;;16.98;100.00
12666;BME280;58531;59.050;17.416;2023-06-22T02:37:51;100583.50;;;16.92;100.00
12666;BME280;58531;59.050;17.416;2023-06-22T02:40:19;100585.94;;;16.90;100.00
12666;BME280;58531;59.050;17.416;2023-06-22T02:42:46;100586.25;;;16.97;100.00
12666;BME280;58531;59.050;17.416;2023-06-22T02:45:13;100584.88;;;17.07;100.00
12666;BME280;58531;59.050;17.416;2023-06-22T02:47:39;100590.81;;;17.17;100.00
12666;BME280;58531;59.050;17.416;2023-06-22T02:50:07;100592.59;;;17.25;100.00
12666;BME280;58531;59.050;17.416;2023-06-22T02:52:33;100586.81;;;17.38;100.00
12666;BME280;58531;59.050;17.416;2023-06-22T02:55:00;100596.16;;;17.84;100.00
12666;BME280;58531;59.050;17.416;2023-06-22T02:57:29;100587.13;;;17.98;100.00
12666;BME280;58531;59.050;17.416;2023-06-22T02:59:56;100589.16;;;18.14;100.00
12666;BME280;58531;59.050;17.416;2023-06-22T03:02:23;100588.53;;;18.41;100.00
12666;BME280;58531;59.050;17.416;2023-06-22T03:04:51;100599.84;;;18.50;100.00
12666;BME280;58531;59.050;17.416;2023-06-22T03:07:19;100599.41;;;18.90;100.00
12666;BME280;58531;59.050;17.416;2023-06-22T03:09:46;100594.88;;;19.80;100.00
12666;BME280;58531;59.050;17.416;2023-06-22T03:12:13;100588.94;;;19.87;100.00
12666;BME280;58531;59.050;17.416;2023-06-22T03:14:41;100589.06;;;19.43;100.00
12666;BME280;58531;59.050;17.416;2023-06-22T03:17:08;100597.44;;;19.45;100.00
12666;BME280;58531;59.050;17.416;2023-06-22T03:19:36;100592.53;;;19.16;100.00
12666;BME280;58531;59.050;17.416;2023-06-22T03:22:03;100598.44;;;19.42;100.00
12666;BME280;58531;59.050;17.416;2023-06-22T03:24:30;100601.88;;;19.37;100.00
12666;BME280;58531;59.050;17.416;2023-06-22T03:26:57;100597.22;;;19.16;100.00
12666;BME280;58531;59.050;17.416;2023-06-22T03:29:23;100606.53;;;18.77;100.00
12666;BME280;58531;59.050;17.416;2023-06-22T03:31:52;100600.59;;;18.62;100.00
12666;BME280;58531;59.050;17.416;2023-06-22T03:34:19;100594.22;;;18.59;100.00
12666;BME280;58531;59.050;17.416;2023-06-22T03:36:46;100597.19;;;18.61;100.00
12666;BME280;58531;59.050;17.416;2023-06-22T03:39:12;100599.91;;;18.72;100.00
12666;BME280;58531;59.050;17.416;2023-06-22T03:41:39;100596.00;;;19.11;100.00
12666;BME280;58531;59.050;17.416;2023-06-22T03:44:06;100588.09;;;19.24;100.00
12666;BME280;58531;59.050;17.416;2023-06-22T03:46:36;100598.22;;;19.35;100.00
12666;BME280;58531;59.050;17.416;2023-06-22T03:49:04;100597.47;;;19.23;100.00
12666;BME280;58531;59.050;17.416;2023-06-22T03:51:32;100599.69;;;19.30;100.00
12666;BME280;58531;59.050;17.416;2023-06-22T03:53:59;100594.25;;;19.30;100.00
12666;BME280;58531;59.050;17.416;2023-06-22T03:56:26;100592.69;;;19.79;97.80
12666;BME280;58531;59.050;17.416;2023-06-22T03:58:52;100600.88;;;21.05;91.98
12666;BME280;58531;59.050;17.416;2023-06-22T04:01:19;100602.69;;;21.50;85.17
12666;BME280;58531;59.050;17.416;2023-06-22T04:03:46;100603.34;;;22.23;81.73
12666;BME280;58531;59.050;17.416;2023-06-22T04:06:16;100600.97;;;22.32;77.78
12666;BME280;58531;59.050;17.416;2023-06-22T04:08:45;100603.25;;;21.91;81.13
12666;BME280;58531;59.050;17.416;2023-06-22T04:11:16;100606.53;;;22.45;78.75
12666;BME280;58531;59.050;17.416;2023-06-22T04:13:43;100603.84;;;22.76;75.45
12666;BME280;58531;59.050;17.416;2023-06-22T04:16:10;100596.88;;;22.44;76.57
12666;BME280;58531;59.050;17.416;2023-06-22T04:18:36;100603.50;;;22.67;74.66
12666;BME280;58531;59.050;17.416;2023-06-22T04:21:04;100595.41;;;21.64;77.89
12666;BME280;58531;59.050;17.416;2023-06-22T04:23:33;100593.56;;;21.24;81.24
12666;BME280;58531;59.050;17.416;2023-06-22T04:25:59;100597.50;;;21.23;83.31
12666;BME280;58531;59.050;17.416;2023-06-22T04:28:26;100602.78;;;21.40;82.10
12666;BME280;58531;59.050;17.416;2023-06-22T04:30:53;100598.78;;;22.12;78.32
12666;BME280;58531;59.050;17.416;2023-06-22T04:33:23;100606.63;;;23.73;71.67
12666;BME280;58531;59.050;17.416;2023-06-22T04:35:50;100602.44;;;24.77;65.81
12666;BME280;58531;59.050;17.416;2023-06-22T04:38:17;100611.97;;;25.73;61.71
12666;BME280;58531;59.050;17.416;2023-06-22T04:40:45;100611.25;;;26.80;56.96
12666;BME280;58531;59.050;17.416;2023-06-22T04:43:12;100615.03;;;26.48;56.71
12666;BME280;58531;59.050;17.416;2023-06-22T04:45:38;100609.91;;;26.44;58.23
12666;BME280;58531;59.050;17.416;2023-06-22T04:48:05;100605.41;;;26.84;57.61
12666;BME280;58531;59.050;17.416;2023-06-22T04:50:33;100615.06;;;27.74;53.90
12666;BME280;58531;59.050;17.416;2023-06-22T04:53:00;100611.69;;;26.42;55.00
12666;BME280;58531;59.050;17.416;2023-06-22T04:55:31;100613.59;;;25.76;59.20
12666;BME280;58531;59.050;17.416;2023-06-22T04:57:59;100612.25;;;24.73;61.34
12666;BME280;58531;59.050;17.416;2023-06-22T05:00:30;100620.97;;;24.25;64.88
12666;BME280;58531;59.050;17.416;2023-06-22T05:02:57;100624.69;;;23.63;67.18
12666;BME280;58531;59.050;17.416;2023-06-22T05:05:24;100618.53;;;24.34;64.13
12666;BME280;58531;59.050;17.416;2023-06-22T05:07:52;100620.91;;;24.17;65.28
12666;BME280;58531;59.050;17.416;2023-06-22T05:10:20;100624.00;;;23.31;68.11
12666;BME280;58531;59.050;17.416;2023-06-22T05:12:47;100629.47;;;23.18;68.14
12666;BME280;58531;59.050;17.416;2023-06-22T05:15:15;100621.31;;;23.44;68.37
12666;BME280;58531;59.050;17.416;2023-06-22T05:17:42;100625.53;;;23.84;65.31
12666;BME280;58531;59.050;17.416;2023-06-22T05:20:09;100630.56;;;23.54;67.86
12666;BME280;58531;59.050;17.416;2023-06-22T05:22:36;100628.22;;;23.32;69.07
12666;BME280;58531;59.050;17.416;2023-06-22T05:25:05;100629.50;;;24.21;65.65
12666;BME280;58531;59.050;17.416;2023-06-22T05:27:32;100626.34;;;23.40;65.13
12666;BME280;58531;59.050;17.416;2023-06-22T05:29:59;100617.63;;;22.47;70.68
12666;BME280;58531;59.050;17.416;2023-06-22T05:32:27;100628.47;;;21.39;76.51
12666;BME280;58531;59.050;17.416;2023-06-22T05:34:54;100643.38;;;20.97;78.66
12666;BME280;58531;59.050;17.416;2023-06-22T05:37:21;100633.66;;;20.32;83.13
12666;BME280;58531;59.050;17.416;2023-06-22T05:39:48;100634.03;;;20.01;85.70
12666;BME280;58531;59.050;17.416;2023-06-22T05:42:14;100640.72;;;19.78;86.95
12666;BME280;58531;59.050;17.416;2023-06-22T05:44:41;100633.13;;;19.66;86.88
12666;BME280;58531;59.050;17.416;2023-06-22T05:47:08;100631.19;;;19.44;86.87
12666;BME280;58531;59.050;17.416;2023-06-22T05:49:36;100636.59;;;19.22;86.96
12666;BME280;58531;59.050;17.416;2023-06-22T05:52:03;100634.13;;;19.13;88.15
12666;BME280;58531;59.050;17.416;2023-06-22T05:54:30;100634.63;;;19.06;89.84
12666;BME280;58531;59.050;17.416;2023-06-22T05:56:57;100639.28;;;19.01;90.93
12666;BME280;58531;59.050;17.416;2023-06-22T05:59:24;100644.44;;;19.04;91.06
12666;BME280;58531;59.050;17.416;2023-06-22T06:01:51;100639.53;;;18.97;91.24
12666;BME280;58531;59.050;17.416;2023-06-22T06:04:18;100638.03;;;18.80;91.51
12666;BME280;58531;59.050;17.416;2023-06-22T06:06:46;100641.69;;;18.66;93.53
12666;BME280;58531;59.050;17.416;2023-06-22T06:09:13;100649.81;;;18.60;93.98
12666;BME280;58531;59.050;17.416;2023-06-22T06:11:40;100645.16;;;18.61;93.23
12666;BME280;58531;59.050;17.416;2023-06-22T06:14:07;100650.75;;;18.46;94.44
12666;BME280;58531;59.050;17.416;2023-06-22T06:16:34;100651.72;;;18.43;94.39
12666;BME280;58531;59.050;17.416;2023-06-22T06:19:01;100645.53;;;18.37;94.42
12666;BME280;58531;59.050;17.416;2023-06-22T06:21:28;100642.38;;;18.39;93.98
12666;BME280;58531;59.050;17.416;2023-06-22T06:23:56;100643.59;;;18.32;93.96
12666;BME280;58531;59.050;17.416;2023-06-22T06:26:23;100651.97;;;18.40;95.68
12666;BME280;58531;59.050;17.416;2023-06-22T06:28:55;100651.47;;;18.41;94.49
12666;BME280;58531;59.050;17.416;2023-06-22T06:31:22;100652.50;;;18.55;95.31
12666;BME280;58531;59.050;17.416;2023-06-22T06:33:49;100654.25;;;18.80;93.96
12666;BME280;58531;59.050;17.416;2023-06-22T06:36:16;100637.81;;;18.89;92.52
12666;BME280;58531;59.050;17.416;2023-06-22T06:38:43;100639.31;;;19.28;91.70
12666;BME280;58531;59.050;17.416;2023-06-22T06:41:13;100630.13;;;21.47;77.72
12666;BME280;58531;59.050;17.416;2023-06-22T06:43:40;100650.09;;;23.97;68.68
12666;BME280;58531;59.050;17.416;2023-06-22T06:46:08;100656.09;;;25.97;57.83
12666;BME280;58531;59.050;17.416;2023-06-22T06:48:35;100649.47;;;26.93;53.10
12666;BME280;58531;59.050;17.416;2023-06-22T06:51:02;100658.91;;;28.04;51.10
12666;BME280;58531;59.050;17.416;2023-06-22T06:53:29;100659.94;;;29.19;47.20
12666;BME280;58531;59.050;17.416;2023-06-22T06:55:56;100659.41;;;29.79;44.50
12666;BME280;58531;59.050;17.416;2023-06-22T06:58:24;100654.44;;;28.24;46.90
12666;BME280;58531;59.050;17.416;2023-06-22T07:00:51;100665.88;;;26.21;49.69
12666;BME280;58531;59.050;17.416;2023-06-22T07:03:17;100664.75;;;23.55;59.33
12666;BME280;58531;59.050;17.416;2023-06-22T07:05:44;100663.84;;;22.10;65.56
12666;BME280;58531;59.050;17.416;2023-06-22T07:08:11;100668.84;;;21.53;69.00
12666;BME280;58531;59.050;17.416;2023-06-22T07:10:38;100663.84;;;21.04;70.77
12666;BME280;58531;59.050;17.416;2023-06-22T07:13:04;100664.25;;;20.73;71.17
12666;BME280;58531;59.050;17.416;2023-06-22T07:15:33;100662.41;;;20.57;74.62
12666;BME280;58531;59.050;17.416;2023-06-22T07:17:59;100660.22;;;20.50;75.72
12666;BME280;58531;59.050;17.416;2023-06-22T07:20:26;100660.38;;;21.38;72.47
12666;BME280;58531;59.050;17.416;2023-06-22T07:22:53;100660.72;;;22.01;69.57
12666;BME280;58531;59.050;17.416;2023-06-22T07:25:20;100655.91;;;22.12;69.63
12666;BME280;58531;59.050;17.416;2023-06-22T07:27:57;100662.41;;;22.28;65.61
12666;BME280;58531;59.050;17.416;2023-06-22T07:30:24;100659.91;;;22.30;67.88
12666;BME280;58531;59.050;17.416;2023-06-22T07:32:53;100656.53;;;22.42;65.33
12666;BME280;58531;59.050;17.416;2023-06-22T07:35:20;100655.53;;;22.45;67.17
12666;BME280;58531;59.050;17.416;2023-06-22T07:37:47;100661.25;;;22.60;66.03
12666;BME280;58531;59.050;17.416;2023-06-22T07:40:14;100662.53;;;23.09;67.01
12666;BME280;58531;59.050;17.416;2023-06-22T07:42:41;100650.50;;;22.31;66.76
12666;BME280;58531;59.050;17.416;2023-06-22T07:45:08;100655.44;;;21.90;67.78
12666;BME280;58531;59.050;17.416;2023-06-22T07:47:35;100659.91;;;21.63;68.46
12666;BME280;58531;59.050;17.416;2023-06-22T07:50:03;100659.78;;;21.74;69.37
12666;BME280;58531;59.050;17.416;2023-06-22T07:52:31;100661.25;;;21.75;69.66
12666;BME280;58531;59.050;17.416;2023-06-22T07:54:58;100648.69;;;21.72;69.38
12666;BME280;58531;59.050;17.416;2023-06-22T07:57:24;100656.47;;;22.66;65.80
12666;BME280;58531;59.050;17.416;2023-06-22T07:59:57;100654.75;;;24.81;60.09
12666;BME280;58531;59.050;17.416;2023-06-22T08:02:25;100661.00;;;26.42;55.34
12666;BME280;58531;59.050;17.416;2023-06-22T08:04:51;100650.31;;;26.16;52.51
12666;BME280;58531;59.050;17.416;2023-06-22T08:07:20;100652.06;;;27.36;52.14
12666;BME280;58531;59.050;17.416;2023-06-22T08:09:47;100656.63;;;28.33;46.95
12666;BME280;58531;59.050;17.416;2023-06-22T08:12:15;100660.41;;;27.83;48.86
12666;BME280;58531;59.050;17.416;2023-06-22T08:14:43;100646.03;;;26.35;49.02
12666;BME280;58531;59.050;17.416;2023-06-22T08:17:11;100648.00;;;25.16;52.26
12666;BME280;58531;59.050;17.416;2023-06-22T08:19:39;100659.72;;;23.59;56.37
12666;BME280;58531;59.050;17.416;2023-06-22T08:22:06;100658.88;;;23.51;60.94
12666;BME280;58531;59.050;17.416;2023-06-22T08:24:34;100666.03;;;24.18;57.91
12666;BME280;58531;59.050;17.416;2023-06-22T08:27:01;100668.31;;;24.27;55.60
12666;BME280;58531;59.050;17.416;2023-06-22T08:29:28;100658.63;;;24.65;55.94
12666;BME280;58531;59.050;17.416;2023-06-22T08:31:55;100667.72;;;23.83;56.82
12666;BME280;58531;59.050;17.416;2023-06-22T08:34:22;100663.75;;;24.09;54.26
12666;BME280;58531;59.050;17.416;2023-06-22T08:36:52;100667.00;;;23.38;57.07
12666;BME280;58531;59.050;17.416;2023-06-22T08:39:19;100674.34;;;23.30;57.45
12666;BME280;58531;59.050;17.416;2023-06-22T08:41:48;100676.28;;;23.16;61.59
12666;BME280;58531;59.050;17.416;2023-06-22T08:44:18;100671.91;;;23.71;59.85
12666;BME280;58531;59.050;17.416;2023-06-22T08:46:45;100672.31;;;24.26;56.97
12666;BME280;58531;59.050;17.416;2023-06-22T08:49:12;100671.25;;;24.29;55.73
12666;BME280;58531;59.050;17.416;2023-06-22T08:51:38;100670.53;;;24.16;54.96
12666;BME280;58531;59.050;17.416;2023-06-22T08:54:05;100671.00;;;23.81;56.62
12666;BME280;58531;59.050;17.416;2023-06-22T08:56:32;100668.53;;;23.52;55.23
12666;BME280;58531;59.050;17.416;2023-06-22T08:59:00;100669.41;;;23.98;58.88
12666;BME280;58531;59.050;17.416;2023-06-22T09:01:27;100676.91;;;24.44;55.20
12666;BME280;58531;59.050;17.416;2023-06-22T09:03:54;100662.34;;;24.75;51.51
12666;BME280;58531;59.050;17.416;2023-06-22T09:06:23;100665.19;;;25.03;52.14
12666;BME280;58531;59.050;17.416;2023-06-22T09:08:50;100654.50;;;24.92;51.27
12666;BME280;58531;59.050;17.416;2023-06-22T09:11:17;100652.78;;;24.82;52.50
12666;BME280;58531;59.050;17.416;2023-06-22T09:13:44;100656.47;;;24.38;53.75
12666;BME280;58531;59.050;17.416;2023-06-22T09:16:13;100661.25;;;24.58;53.83
12666;BME280;58531;59.050;17.416;2023-06-22T09:18:40;100649.38;;;24.89;53.96
12666;BME280;58531;59.050;17.416;2023-06-22T09:21:07;100649.63;;;24.98;53.40
12666;BME280;58531;59.050;17.416;2023-06-22T09:23:34;100643.81;;;24.81;52.31
12666;BME280;58531;59.050;17.416;2023-06-22T09:26:01;100641.63;;;24.80;53.81
12666;BME280;58531;59.050;17.416;2023-06-22T09:28:29;100647.81;;;24.80;55.61
12666;BME280;58531;59.050;17.416;2023-06-22T09:30:56;100639.41;;;24.78;51.61
12666;BME280;58531;59.050;17.416;2023-06-22T09:33:26;100630.78;;;24.54;53.57
12666;BME280;58531;59.050;17.416;2023-06-22T09:35:53;100626.06;;;24.88;54.53
12666;BME280;58531;59.050;17.416;2023-06-22T09:38:20;100629.31;;;25.07;52.57
12666;BME280;58531;59.050;17.416;2023-06-22T09:40:46;100624.09;;;24.75;51.62
12666;BME280;58531;59.050;17.416;2023-06-22T09:43:13;100638.28;;;24.53;53.30
12666;BME280;58531;59.050;17.416;2023-06-22T09:45:40;100630.47;;;24.57;52.96
12666;BME280;58531;59.050;17.416;2023-06-22T09:48:07;100631.34;;;24.39;53.91
12666;BME280;58531;59.050;17.416;2023-06-22T09:50:36;100620.00;;;24.35;52.98
12666;BME280;58531;59.050;17.416;2023-06-22T09:53:03;100627.78;;;24.78;51.91
12666;BME280;58531;59.050;17.416;2023-06-22T09:55:30;100618.31;;;24.45;50.41
12666;BME280;58531;59.050;17.416;2023-06-22T09:57:57;100625.69;;;24.24;50.66
12666;BME280;58531;59.050;17.416;2023-06-22T10:00:24;100621.69;;;24.51;52.32
12666;BME280;58531;59.050;17.416;2023-06-22T10:02:52;100613.41;;;24.98;52.28
12666;BME280;58531;59.050;17.416;2023-06-22T10:05:18;100610.47;;;25.44;54.34
12666;BME280;58531;59.050;17.416;2023-06-22T10:07:47;100614.53;;;25.78;50.50
12666;BME280;58531;59.050;17.416;2023-06-22T10:10:14;100618.19;;;25.81;51.67
12666;BME280;58531;59.050;17.416;2023-06-22T10:12:43;100614.63;;;25.65;50.71
12666;BME280;58531;59.050;17.416;2023-06-22T10:15:11;100620.47;;;25.62;50.39
12666;BME280;58531;59.050;17.416;2023-06-22T10:17:38;100612.50;;;25.79;48.09
12666;BME280;58531;59.050;17.416;2023-06-22T10:20:06;100614.31;;;25.69;51.28
12666;BME280;58531;59.050;17.416;2023-06-22T10:22:37;100618.22;;;25.53;52.45
12666;BME280;58531;59.050;17.416;2023-06-22T10:25:07;100612.56;;;25.58;48.92
12666;BME280;58531;59.050;17.416;2023-06-22T10:27:34;100611.84;;;25.86;51.69
12666;BME280;58531;59.050;17.416;2023-06-22T10:30:01;100612.44;;;25.92;47.09
12666;BME280;58531;59.050;17.416;2023-06-22T10:32:30;100609.84;;;25.58;46.35
12666;BME280;58531;59.050;17.416;2023-06-22T10:34:57;100594.34;;;25.33;47.83
12666;BME280;58531;59.050;17.416;2023-06-22T10:37:24;100612.06;;;25.60;48.62
12666;BME280;58531;59.050;17.416;2023-06-22T10:39:51;100605.50;;;25.35;47.20
12666;BME280;58531;59.050;17.416;2023-06-22T10:42:19;100597.66;;;25.31;46.69
12666;BME280;58531;59.050;17.416;2023-06-22T10:44:46;100606.25;;;25.35;46.95
12666;BME280;58531;59.050;17.416;2023-06-22T10:47:13;100600.28;;;25.44;46.54
12666;BME280;58531;59.050;17.416;2023-06-22T10:49:40;100606.47;;;25.45;47.72
12666;BME280;58531;59.050;17.416;2023-06-22T10:52:08;100613.25;;;25.79;47.29
12666;BME280;58531;59.050;17.416;2023-06-22T10:54:36;100603.75;;;25.73;44.65
12666;BME280;58531;59.050;17.416;2023-06-22T10:57:03;100608.50;;;25.24;45.02
12666;BME280;58531;59.050;17.416;2023-06-22T10:59:32;100605.69;;;25.37;45.13
12666;BME280;58531;59.050;17.416;2023-06-22T11:01:58;100607.34;;;25.40;47.05
12666;BME280;58531;59.050;17.416;2023-06-22T11:04:25;100613.66;;;25.27;44.39
12666;BME280;58531;59.050;17.416;2023-06-22T11:06:52;100605.59;;;25.22;44.61
12666;BME280;58531;59.050;17.416;2023-06-22T11:09:19;100605.41;;;25.20;45.82
12666;BME280;58531;59.050;17.416;2023-06-22T11:11:47;100596.38;;;25.32;43.71
12666;BME280;58531;59.050;17.416;2023-06-22T11:14:14;100598.81;;;25.43;43.68
12666;BME280;58531;59.050;17.416;2023-06-22T11:16:42;100596.91;;;25.59;44.26
12666;BME280;58531;59.050;17.416;2023-06-22T11:19:09;100608.25;;;25.63;43.81
12666;BME280;58531;59.050;17.416;2023-06-22T11:21:36;100587.19;;;25.50;44.34
12666;BME280;58531;59.050;17.416;2023-06-22T11:24:03;100592.59;;;25.71;44.68
12666;BME280;58531;59.050;17.416;2023-06-22T11:26:30;100595.28;;;25.63;44.47
12666;BME280;58531;59.050;17.416;2023-06-22T11:28:57;100598.81;;;25.79;44.38
12666;BME280;58531;59.050;17.416;2023-06-22T11:31:24;100599.38;;;25.77;42.04
12666;BME280;58531;59.050;17.416;2023-06-22T11:33:52;100592.31;;;25.82;41.86
12666;BME280;58531;59.050;17.416;2023-06-22T11:36:19;100587.59;;;25.90;43.37
12666;BME280;58531;59.050;17.416;2023-06-22T11:38:46;100582.41;;;26.14;43.57
12666;BME280;58531;59.050;17.416;2023-06-22T11:41:13;100590.47;;;26.27;42.40
12666;BME280;58531;59.050;17.416;2023-06-22T11:43:40;100589.38;;;26.23;43.00
12666;BME280;58531;59.050;17.416;2023-06-22T11:46:07;100581.59;;;25.91;42.21
12666;BME280;58531;59.050;17.416;2023-06-22T11:48:34;100579.78;;;25.94;44.28
12666;BME280;58531;59.050;17.416;2023-06-22T11:51:03;100578.78;;;26.19;42.44
12666;BME280;58531;59.050;17.416;2023-06-22T11:53:31;100581.25;;;26.02;41.40
12666;BME280;58531;59.050;17.416;2023-06-22T11:55:59;100585.13;;;26.07;44.05
12666;BME280;58531;59.050;17.416;2023-06-22T11:58:26;100575.16;;;26.32;41.23
12666;BME280;58531;59.050;17.416;2023-06-22T12:00:53;100578.78;;;26.19;42.66
12666;BME280;58531;59.050;17.416;2023-06-22T12:03:20;100586.03;;;26.59;44.16
12666;BME280;58531;59.050;17.416;2023-06-22T12:05:49;100596.41;;;26.61;41.65
12666;BME280;58531;59.050;17.416;2023-06-22T12:08:18;100586.84;;;26.25;41.45
12666;BME280;58531;59.050;17.416;2023-06-22T12:10:45;100585.72;;;26.28;42.42
12666;BME280;58531;59.050;17.416;2023-06-22T12:13:12;100584.91;;;26.48;42.82
12666;BME280;58531;59.050;17.416;2023-06-22T12:15:39;100584.31;;;26.42;40.94
12666;BME280;58531;59.050;17.416;2023-06-22T12:18:06;100592.44;;;26.69;43.16
12666;BME280;58531;59.050;17.416;2023-06-22T12:20:34;100592.78;;;26.66;41.72
12666;BME280;58531;59.050;17.416;2023-06-22T12:23:01;100596.81;;;26.72;42.05
12666;BME280;58531;59.050;17.416;2023-06-22T12:25:29;100574.88;;;26.57;40.16
12666;BME280;58531;59.050;17.416;2023-06-22T12:27:56;100591.31;;;26.50;41.17
12666;BME280;58531;59.050;17.416;2023-06-22T12:30:23;100587.22;;;26.36;42.36
12666;BME280;58531;59.050;17.416;2023-06-22T12:32:50;100576.97;;;26.22;38.21
12666;BME280;58531;59.050;17.416;2023-06-22T12:35:17;100581.63;;;25.99;38.96
12666;BME280;58531;59.050;17.416;2023-06-22T12:37:44;100575.00;;;25.87;38.27
12666;BME280;58531;59.050;17.416;2023-06-22T12:40:11;100576.91;;;26.07;39.91